Accueil
METAR-TAF:

METAR-TAF

Aéroports :

Aéroport de Shoreham

Brighton, Angleterre

latitude: 50-50N, longitude: 000-17W, altitude: 2 m

Observation

Le bulletin a été fait il y a 40 minutes, à 18:50 UTC
Vent 17 kt de est/sud-est
Température 8°C
Humidité 76%
Pression 1008 hPa
Visibilité 10 km ou plus
Nuages fragmentés à une hauteur de 2300 ft

METAR: EGKA 201850Z 11017KT 9999 BKN023 08/04 Q1008

Heure: 19:30 (19:30 UTC)

Prévision

Le bulletin a été fait il y a 2 heures et 32 minutes, à 16:58 UTC
Prévision valable du 20 à 18 UTC au 20 à 20 UTC
Vent 14 kt de est
Visibilité 10 km ou plus
Nuages épars à une hauteur de 3000 ft

TAF: EGKA 201658Z 2018/2020 10014KT 9999 SCT030

Observations et prévisions météorologiques de plus de 4000 aéroports (messages METAR et TAF).

Les stations disponibles sont représentées par des disques jaunes et rouges sur la carte.

Passer la souris dessus pour voir le nom de la station.

Cliquer dessus pour voir les observations et prévisions météorologiques.

Pour changer de carte: cliquez sur les boutons verts avec une croix noire pour zoomer, sur le bouton vert avec un tiret pour effectuer un zoom arrière, ou sur les flèches vertes pour les cartes adjacentes.


METAR-TAF: